Time;durP1;ratioP1;P1;durP2;ratioP2;P2;SDS_P1;SDS_P2;PMS_P1;PMS_P2;Temp;Humidity;BMP_temperature;BMP_pressure;BME280_temperature;BME280_humidity;BME280_pressure;Samples;Min_cycle;Max_cycle;Signal;HPM_P1;HPM_P2
2022/10/07 00:02:10;;;;;;;12.00;7.50;;;;;;;12.70;85.87;100636.29;106378;1309;22145;-59
2022/10/07 00:04:43;;;;;;;9.70;7.40;;;;;;;12.66;86.20;100636.17;106336;1309;22180;-59
2022/10/07 00:07:11;;;;;;;16.60;8.20;;;;;;;12.62;86.28;100639.75;106275;1309;139114;-58
2022/10/07 00:09:38;;;;;;;9.60;8.20;;;;;;;12.59;86.95;100640.18;106351;1309;22180;-58
2022/10/07 00:12:05;;;;;;;13.20;7.60;;;;;;;12.59;87.14;100642.25;106044;1309;138291;-59
2022/10/07 00:14:32;;;;;;;10.20;7.20;;;;;;;12.57;87.29;100640.14;106329;1309;22219;-59
2022/10/07 00:16:59;;;;;;;13.30;7.60;;;;;;;12.55;87.31;100641.69;106376;1298;22248;-59
2022/10/07 00:19:25;;;;;;;11.00;8.00;;;;;;;12.52;87.27;100642.30;106199;1309;138815;-59
2022/10/07 00:21:52;;;;;;;13.90;8.10;;;;;;;12.50;87.37;100643.39;106344;1309;22273;-59
2022/10/07 00:24:19;;;;;;;10.30;7.20;;;;;;;12.49;87.38;100645.13;106209;1309;139763;-59
2022/10/07 00:26:46;;;;;;;11.00;8.20;;;;;;;12.48;87.33;100647.72;106334;1309;22943;-59
2022/10/07 00:29:13;;;;;;;10.60;7.90;;;;;;;12.47;87.79;100648.73;106367;1309;22125;-59
2022/10/07 00:31:40;;;;;;;14.90;7.10;;;;;;;12.45;87.96;100648.48;106198;1309;138335;-59
2022/10/07 00:34:08;;;;;;;10.70;7.50;;;;;;;12.44;87.83;100652.38;106363;1309;22315;-59
2022/10/07 00:36:36;;;;;;;12.80;7.20;;;;;;;12.41;87.89;100653.16;105991;1309;139851;-59
2022/10/07 00:39:09;;;;;;;11.10;8.50;;;;;;;12.40;88.12;100650.75;106350;1309;22240;-60
2022/10/07 00:41:39;;;;;;;10.50;7.70;;;;;;;12.39;88.24;100650.69;106224;1309;139676;-58
2022/10/07 00:44:28;;;;;;;13.90;8.60;;;;;;;12.38;88.21;100654.77;106352;1309;22121;-58
2022/10/07 00:46:55;;;;;;;13.10;7.70;;;;;;;12.38;88.56;100657.67;106162;1310;22127;-58
2022/10/07 00:49:21;;;;;;;10.50;7.00;;;;;;;12.39;88.98;100660.56;106245;1309;139193;-58
2022/10/07 00:51:50;;;;;;;;;;;;;;;12.38;89.37;100665.09;106247;1309;22416;-58
2022/10/07 00:54:17;;;;;;;8.70;6.70;;;;;;;12.37;89.63;100669.55;106221;1309;125365;-58
2022/10/07 00:56:44;;;;;;;9.50;6.90;;;;;;;12.36;89.82;100668.66;106133;1309;22251;-58
2022/10/07 00:59:11;;;;;;;;;;;;;;;12.33;89.90;100666.14;106111;1309;22380;-59
2022/10/07 01:01:40;;;;;;;9.70;7.30;;;;;;;12.32;89.94;100671.24;106059;1309;124818;-58
2022/10/07 01:04:09;;;;;;;11.90;7.00;;;;;;;12.31;89.96;100671.65;106294;1309;22279;-59
2022/10/07 01:06:38;;;;;;;8.10;6.50;;;;;;;12.30;90.16;100676.83;106046;1310;138249;-59
2022/10/07 01:09:05;;;;;;;8.30;5.40;;;;;;;12.30;90.08;100677.75;105952;1309;22298;-59
2022/10/07 01:11:38;;;;;;;8.60;6.10;;;;;;;12.30;90.09;100679.61;106067;1310;140651;-59
2022/10/07 01:14:54;;;;;;;8.30;6.90;;;;;;;12.30;90.20;100678.85;106340;1309;22927;-58
2022/10/07 01:17:38;;;;;;;9.50;6.50;;;;;;;12.31;90.52;100681.48;105582;1315;22246;-58
2022/10/07 01:20:15;;;;;;;8.10;6.00;;;;;;;12.32;90.67;100680.75;105480;1315;22171;-57
2022/10/07 01:22:44;;;;;;;14.90;7.40;;;;;;;12.32;90.87;100685.63;105441;1315;22812;-57
2022/10/07 01:25:19;;;;;;;9.80;6.60;;;;;;;12.30;90.91;100689.95;105381;1315;138826;-60
2022/10/07 01:27:49;;;;;;;13.50;7.20;;;;;;;12.27;90.90;100695.56;105495;1315;22371;-58
2022/10/07 01:30:17;;;;;;;9.60;6.10;;;;;;;12.25;90.93;100695.37;105375;1315;140128;-58
2022/10/07 01:32:55;;;;;;;8.50;6.30;;;;;;;12.24;90.85;100693.81;105447;1318;22254;-58
2022/10/07 01:35:24;;;;;;;9.70;6.00;;;;;;;12.22;90.88;100697.98;105321;1318;23151;-58
2022/10/07 01:37:54;;;;;;;8.80;6.70;;;;;;;12.20;91.08;100701.10;105448;1315;139812;-58
2022/10/07 01:40:26;;;;;;;8.90;6.50;;;;;;;12.18;91.20;100700.33;105310;1314;22206;-56
2022/10/07 01:42:53;;;;;;;12.90;6.90;;;;;;;12.17;91.50;100697.24;105222;1315;138384;-58
2022/10/07 01:45:21;;;;;;;8.40;6.20;;;;;;;12.17;91.62;100699.16;105423;1315;22397;-58
2022/10/07 01:47:48;;;;;;;7.00;5.70;;;;;;;12.17;92.14;100699.39;105157;1315;139074;-58
2022/10/07 01:50:15;;;;;;;9.70;6.00;;;;;;;12.20;92.27;100696.77;105248;1318;22190;-58
2022/10/07 01:53:14;;;;;;;8.60;6.60;;;;;;;12.22;92.56;100697.36;105433;1315;22218;-58
2022/10/07 01:55:56;;;;;;;11.20;6.60;;;;;;;12.25;92.99;100699.57;105976;1310;142540;-58
2022/10/07 01:58:47;;;;;;;9.10;6.10;;;;;;;12.28;92.88;100704.75;106310;1309;22239;-58
2022/10/07 02:01:18;;;;;;;8.80;6.20;;;;;;;12.29;93.10;100711.08;105972;1309;139363;-58
2022/10/07 02:04:06;;;;;;;10.20;6.30;;;;;;;12.30;93.18;100714.55;106068;1309;22132;-58
2022/10/07 02:06:50;;;;;;;11.30;5.90;;;;;;;12.31;93.44;100715.88;106166;1309;138219;-58
2022/10/07 02:09:32;;;;;;;8.10;5.80;;;;;;;12.32;93.54;100723.52;106251;1309;22317;-58
2022/10/07 02:12:20;;;;;;;9.40;5.90;;;;;;;12.34;93.73;100729.33;106295;1309;138470;-58
2022/10/07 02:14:53;;;;;;;15.10;7.20;;;;;;;12.35;93.95;100730.23;106114;1309;22198;-58
2022/10/07 02:17:22;;;;;;;13.10;5.90;;;;;;;12.35;93.95;100735.05;106246;1310;22170;-58
2022/10/07 02:19:52;;;;;;;12.10;6.00;;;;;;;12.34;93.94;100739.19;106296;1306;139176;-57
2022/10/07 02:22:21;;;;;;;7.20;5.60;;;;;;;12.34;94.04;100740.33;106355;1303;22144;-57
2022/10/07 02:24:48;;;;;;;8.80;6.30;;;;;;;12.35;94.09;100743.80;106290;1306;139857;-57
2022/10/07 02:27:18;;;;;;;9.30;6.10;;;;;;;12.37;93.90;100741.42;106301;1306;22346;-56
2022/10/07 02:29:48;;;;;;;13.20;6.60;;;;;;;12.37;93.94;100748.98;106293;1303;138672;-56
2022/10/07 02:32:18;;;;;;;9.90;5.90;;;;;;;12.38;93.84;100752.17;106474;1306;22125;-57
2022/10/07 02:34:47;;;;;;;11.00;6.30;;;;;;;12.38;93.67;100756.55;106432;1306;22151;-57
2022/10/07 02:37:19;;;;;;;8.40;5.80;;;;;;;12.39;93.29;100758.20;106327;1306;139135;-57
2022/10/07 02:39:46;;;;;;;8.70;5.30;;;;;;;12.39;93.03;100761.44;106481;1306;22234;-57
2022/10/07 02:42:37;;;;;;;7.30;4.80;;;;;;;12.42;92.83;100765.30;106333;1306;138541;-58
2022/10/07 02:45:07;;;;;;;8.20;5.20;;;;;;;12.45;92.33;100770.77;106413;1306;22998;-57
2022/10/07 02:47:38;;;;;;;7.20;4.30;;;;;;;12.47;91.85;100771.16;106506;1306;22914;-58
2022/10/07 02:50:06;;;;;;;9.80;4.60;;;;;;;12.50;91.52;100771.54;106463;1306;22427;-57
2022/10/07 02:52:33;;;;;;;7.20;4.70;;;;;;;12.51;90.97;100775.17;106500;1306;23363;-58
2022/10/07 02:55:05;;;;;;;6.20;4.80;;;;;;;12.51;90.72;100771.80;106368;1306;139681;-58
2022/10/07 02:57:34;;;;;;;8.00;4.60;;;;;;;12.52;90.73;100776.74;106768;1303;22286;-59
2022/10/07 03:00:01;;;;;;;9.70;5.40;;;;;;;12.55;90.38;100779.65;106525;1302;139087;-59
2022/10/07 03:02:55;;;;;;;5.80;4.30;;;;;;;12.56;90.16;100784.69;106763;1303;22168;-59
2022/10/07 03:05:25;;;;;;;6.90;4.50;;;;;;;12.56;89.69;100790.15;106811;1302;22079;-59
2022/10/07 03:08:06;;;;;;;8.70;4.60;;;;;;;12.56;89.57;100788.00;106668;1303;139428;-58
2022/10/07 03:10:33;;;;;;;8.50;5.30;;;;;;;12.56;89.41;100787.33;106627;1303;22527;-59
2022/10/07 03:13:03;;;;;;;9.30;4.60;;;;;;;12.57;89.09;100786.02;106726;1303;140167;-59
2022/10/07 03:15:34;;;;;;;8.60;4.50;;;;;;;12.55;88.93;100788.40;106748;1302;22781;-59
2022/10/07 03:18:24;;;;;;;6.60;4.10;;;;;;;12.52;88.72;100792.32;106653;1302;139924;-59
2022/10/07 03:20:54;;;;;;;9.00;4.50;;;;;;;12.49;88.72;100796.20;106624;1302;23276;-60
2022/10/07 03:23:25;;;;;;;5.90;4.50;;;;;;;12.48;88.58;100796.04;106643;1294;22147;-59
2022/10/07 03:25:53;;;;;;;9.40;5.00;;;;;;;12.46;88.62;100799.23;106687;1303;139702;-60
2022/10/07 03:28:21;;;;;;;7.40;5.20;;;;;;;12.44;88.52;100801.03;106636;1303;22201;-59
2022/10/07 03:30:48;;;;;;;10.10;5.10;;;;;;;12.40;88.04;100803.97;106733;1303;138610;-58
2022/10/07 03:33:15;;;;;;;7.50;4.90;;;;;;;12.36;88.16;100803.95;106756;1303;22140;-58
2022/10/07 03:35:42;;;;;;;6.30;4.40;;;;;;;12.35;87.92;100801.88;106667;1302;139074;-58
2022/10/07 03:38:09;;;;;;;5.90;4.20;;;;;;;12.32;87.58;100807.02;106831;1301;22873;-58
2022/10/07 03:40:37;;;;;;;9.60;4.40;;;;;;;12.28;87.11;100804.27;106749;1296;22204;-58
2022/10/07 03:43:04;;;;;;;8.00;4.10;;;;;;;12.21;86.53;100800.41;106669;1302;138733;-58
2022/10/07 03:45:31;;;;;;;7.10;3.90;;;;;;;12.16;86.20;100801.04;106798;1302;22271;-58
2022/10/07 03:47:58;;;;;;;8.20;3.20;;;;;;;12.12;85.52;100806.91;106647;1302;138811;-58
2022/10/07 03:50:25;;;;;;;;;;;;;;;12.08;85.14;100808.95;106823;1302;22345;-58
2022/10/07 03:52:52;;;;;;;9.80;4.20;;;;;;;12.04;84.70;100810.33;106754;1302;22304;-59
2022/10/07 03:55:18;;;;;;;5.10;3.20;;;;;;;11.98;84.41;100813.85;106699;1301;139582;-57
2022/10/07 03:57:56;;;;;;;;;;;;;;;11.92;84.33;100817.96;106870;1302;24112;-58
2022/10/07 04:00:26;;;;;;;8.80;3.60;;;;;;;11.86;84.03;100821.79;106650;1303;125022;-59
2022/10/07 04:02:53;;;;;;;5.80;3.10;;;;;;;11.81;83.77;100823.36;106782;1302;22226;-58
2022/10/07 04:05:20;;;;;;;6.30;3.40;;;;;;;11.77;83.52;100824.85;106918;1303;22338;-57
2022/10/07 04:07:48;;;;;;;6.60;3.30;;;;;;;11.74;83.58;100828.64;106655;1300;139268;-58
2022/10/07 04:10:16;;;;;;;7.30;4.00;;;;;;;11.70;83.33;100833.30;106787;1302;23106;-58
2022/10/07 04:12:43;;;;;;;8.00;3.10;;;;;;;11.67;83.13;100833.24;106707;1301;138664;-58
2022/10/07 04:15:13;;;;;;;14.50;4.60;;;;;;;11.64;83.09;100836.87;106742;1302;22973;-58
2022/10/07 04:17:42;;;;;;;9.60;3.60;;;;;;;11.59;82.83;100838.73;106689;1302;139544;-57
2022/10/07 04:20:09;;;;;;;5.20;3.10;;;;;;;11.55;82.62;100841.30;106751;1301;22289;-58
2022/10/07 04:22:36;;;;;;;8.70;3.70;;;;;;;11.53;82.70;100839.47;106732;1302;22180;-58
2022/10/07 04:27:53;;;;;;;9.40;3.80;;;;;;;11.44;82.47;100843.36;106752;1302;22920;-59
2022/10/07 04:30:21;;;;;;;8.90;3.80;;;;;;;11.41;82.53;100843.38;106647;1303;139336;-58
2022/10/07 04:32:49;;;;;;;10.30;3.60;;;;;;;11.38;82.55;100839.60;106772;1302;22325;-58
2022/10/07 04:35:20;;;;;;;12.80;3.60;;;;;;;11.36;82.58;100841.89;106744;1302;22434;-58
2022/10/07 04:37:48;;;;;;;6.80;3.50;;;;;;;11.36;82.67;100845.16;106667;1303;138246;-58
2022/10/07 04:40:15;;;;;;;8.60;3.00;;;;;;;11.35;82.49;100847.77;106720;1303;22101;-58
2022/10/07 04:45:28;;;;;;;10.80;3.80;;;;;;;11.32;82.38;100856.96;106782;1294;23000;-58
2022/10/07 04:47:55;;;;;;;10.70;4.10;;;;;;;11.31;82.35;100856.17;106753;1294;140227;-58
2022/10/07 04:50:22;;;;;;;10.10;3.10;;;;;;;11.31;82.57;100855.95;106788;1302;22161;-57
2022/10/07 04:52:48;;;;;;;;;;;;;;;11.31;82.42;100856.38;106763;1302;23130;-59
2022/10/07 04:55:15;;;;;;;6.40;3.30;;;;;;;11.30;82.45;100858.37;106656;1302;124553;-58
2022/10/07 04:57:43;;;;;;;8.20;3.50;;;;;;;11.30;82.42;100856.68;106755;1301;22258;-59
2022/10/07 05:00:12;;;;;;;10.70;3.60;;;;;;;11.32;82.54;100861.99;106663;1302;140414;-58
2022/10/07 05:02:39;;;;;;;10.10;3.30;;;;;;;11.33;82.40;100865.13;106761;1302;22105;-58
2022/10/07 05:05:06;;;;;;;10.30;3.90;;;;;;;11.35;82.07;100865.61;106859;1303;22095;-58
2022/10/07 05:07:33;;;;;;;16.40;3.30;;;;;;;11.36;81.91;100868.16;106657;1302;138276;-58
2022/10/07 05:10:00;;;;;;;10.40;3.40;;;;;;;11.39;81.57;100870.02;106779;1302;22181;-58
2022/10/07 05:12:28;;;;;;;6.60;3.00;;;;;;;11.41;81.39;100865.98;106692;1303;138310;-58
2022/10/07 05:14:55;;;;;;;5.80;3.40;;;;;;;11.44;81.19;100869.13;106688;1302;22183;-57
2022/10/07 05:17:23;;;;;;;16.60;3.90;;;;;;;11.49;81.01;100871.23;106733;1302;22287;-58
2022/10/07 05:19:50;;;;;;;13.20;3.70;;;;;;;11.51;80.62;100873.16;106532;1303;139468;-58
2022/10/07 05:22:17;;;;;;;8.60;3.70;;;;;;;11.54;80.58;100873.11;106761;1302;22203;-58
2022/10/07 05:24:43;;;;;;;;;;;;;;;11.57;80.29;100875.66;106783;1302;139241;-58
2022/10/07 05:27:12;;;;;;;10.30;4.00;;;;;;;11.61;80.06;100878.06;106755;1302;22876;-58
2022/10/07 05:29:39;;;;;;;11.00;2.70;;;;;;;11.65;79.85;100878.55;106731;1302;139429;-58
2022/10/07 05:32:06;;;;;;;11.80;3.60;;;;;;;11.69;79.70;100880.95;106781;1303;22152;-57
2022/10/07 05:34:32;;;;;;;10.40;3.10;;;;;;;11.74;79.60;100883.91;106748;1303;22820;-58
2022/10/07 05:37:00;;;;;;;;;;;;;;;11.78;79.13;100889.48;106682;1302;139374;-60
2022/10/07 05:39:26;;;;;;;10.10;3.30;;;;;;;11.84;79.29;100891.20;106818;1302;22854;-58
2022/10/07 05:41:57;;;;;;;8.50;3.50;;;;;;;11.88;79.33;100896.18;106644;1303;140158;-58
2022/10/07 05:44:30;;;;;;;12.30;3.50;;;;;;;11.93;78.89;100899.71;106729;1302;22151;-58
2022/10/07 05:46:58;;;;;;;10.40;3.60;;;;;;;11.99;78.33;100898.10;106758;1302;22117;-58
2022/10/07 05:49:26;;;;;;;12.60;3.50;;;;;;;12.04;78.25;100907.48;106625;1301;139748;-56
2022/10/07 05:51:54;;;;;;;10.70;3.80;;;;;;;12.10;78.05;100908.40;106818;1303;22136;-58
2022/10/07 05:54:21;;;;;;;9.10;3.10;;;;;;;12.18;77.52;100908.37;106621;1302;138827;-57
2022/10/07 05:56:48;;;;;;;;;;;;;;;12.24;77.35;100905.20;106749;1302;22969;-57
2022/10/07 05:59:15;;;;;;;8.00;2.60;;;;;;;12.29;76.58;100909.14;106732;1302;22739;-58
2022/10/07 06:01:43;;;;;;;8.10;2.70;;;;;;;12.34;76.32;100907.42;106653;1302;139262;-58
2022/10/07 06:04:13;;;;;;;7.80;2.70;;;;;;;12.38;75.78;100913.89;106720;1301;22204;-58
2022/10/07 06:06:42;;;;;;;8.70;2.90;;;;;;;12.44;75.57;100915.89;106632;1294;138000;-59
2022/10/07 06:14:41;;;;;;;11.90;3.10;;;;;;;12.53;74.42;100919.70;106783;1300;22281;-59
2022/10/07 06:17:08;;;;;;;6.90;3.00;;;;;;;12.57;74.23;100925.79;106770;1303;22148;-59
2022/10/07 06:19:36;;;;;;;7.90;3.70;;;;;;;12.61;74.11;100926.44;106651;1302;140518;-59
2022/10/07 06:22:03;;;;;;;12.10;3.20;;;;;;;12.66;73.76;100926.57;106785;1303;22221;-59
2022/10/07 06:24:32;;;;;;;8.20;2.40;;;;;;;12.70;73.59;100930.98;106645;1302;138536;-59
2022/10/07 06:26:59;;;;;;;8.40;3.10;;;;;;;12.74;73.05;100931.23;106756;1302;22229;-59
2022/10/07 06:29:27;;;;;;;10.70;3.30;;;;;;;12.78;72.73;100935.88;106775;1302;22182;-59
2022/10/07 06:31:54;;;;;;;11.50;3.40;;;;;;;12.82;72.47;100936.94;106666;1300;138999;-59
2022/10/07 06:34:20;;;;;;;10.70;3.90;;;;;;;12.87;72.55;100939.63;106796;1303;23131;-59
2022/10/07 06:36:47;;;;;;;9.60;3.60;;;;;;;12.94;72.48;100937.72;106733;1301;140024;-57
2022/10/07 06:39:15;;;;;;;7.60;2.70;;;;;;;13.00;72.42;100939.81;106760;1302;22124;-57
2022/10/07 06:41:42;;;;;;;7.00;2.60;;;;;;;13.05;72.40;100937.20;106664;1302;137521;-58
2022/10/07 06:44:38;;;;;;;9.60;2.50;;;;;;;13.10;72.04;100935.85;106640;1303;22214;-57
2022/10/07 06:47:07;;;;;;;9.00;2.90;;;;;;;13.13;71.06;100937.04;106842;1303;22241;-56
2022/10/07 06:49:38;;;;;;;7.80;3.00;;;;;;;13.14;70.94;100936.80;106646;1293;138998;-56
2022/10/07 06:52:05;;;;;;;11.80;2.90;;;;;;;13.16;70.64;100941.18;106813;1302;22938;-56
2022/10/07 06:54:33;;;;;;;9.40;2.60;;;;;;;13.19;70.23;100948.42;106714;1300;139186;-57
2022/10/07 06:57:00;;;;;;;14.40;3.60;;;;;;;13.22;70.38;100946.35;106775;1300;22160;-57
2022/10/07 06:59:27;;;;;;;12.00;2.50;;;;;;;13.27;70.51;100948.60;106728;1302;22173;-57
2022/10/07 07:01:59;;;;;;;10.30;3.10;;;;;;;13.32;70.39;100944.98;106668;1302;139489;-57
2022/10/07 07:04:27;;;;;;;14.90;3.30;;;;;;;13.38;70.40;100946.40;106751;1302;23356;-58
2022/10/07 07:06:53;;;;;;;8.50;3.00;;;;;;;13.44;70.55;100948.36;106652;1302;138877;-56
2022/10/07 07:09:21;;;;;;;10.10;3.10;;;;;;;13.49;69.96;100949.94;106761;1302;22163;-56
2022/10/07 07:11:49;;;;;;;7.40;2.60;;;;;;;13.52;70.02;100951.22;106630;1302;138845;-56
2022/10/07 07:14:24;;;;;;;9.30;2.60;;;;;;;13.56;69.72;100948.46;106774;1302;22158;-57
2022/10/07 07:16:59;;;;;;;10.50;3.40;;;;;;;13.62;69.34;100948.89;106697;1297;22986;-57
2022/10/07 07:19:26;;;;;;;8.90;2.80;;;;;;;13.67;68.99;100947.36;106738;1302;138980;-57
2022/10/07 07:21:53;;;;;;;9.90;3.30;;;;;;;13.70;67.66;100943.87;106753;1302;22156;-57
2022/10/07 07:24:20;;;;;;;7.00;2.20;;;;;;;13.71;67.39;100945.07;106678;1303;139055;-57
2022/10/07 07:26:47;;;;;;;13.70;3.70;;;;;;;13.71;67.07;100943.54;106855;1293;22222;-57
2022/10/07 07:29:15;;;;;;;8.30;3.30;;;;;;;13.71;67.35;100942.66;106760;1300;22125;-57
2022/10/07 07:31:58;;;;;;;7.90;2.60;;;;;;;13.73;67.48;100940.02;106648;1302;137959;-57
2022/10/07 07:34:29;;;;;;;9.20;2.60;;;;;;;13.77;67.41;100939.49;106854;1303;22122;-57
2022/10/07 07:36:56;;;;;;;12.80;3.10;;;;;;;13.78;66.93;100940.73;106654;1303;138153;-57
2022/10/07 07:39:26;;;;;;;7.40;2.20;;;;;;;13.79;66.64;100932.64;106763;1302;22141;-57
2022/10/07 07:41:59;;;;;;;9.10;2.20;;;;;;;13.79;66.88;100935.55;106666;1302;138163;-57
2022/10/07 07:44:28;;;;;;;10.20;3.20;;;;;;;13.81;66.83;100930.98;106776;1302;22268;-58
2022/10/07 07:47:01;;;;;;;8.20;2.90;;;;;;;13.86;66.60;100932.42;106762;1302;22183;-58
2022/10/07 07:49:30;;;;;;;13.50;2.60;;;;;;;13.90;65.72;100930.32;106669;1303;139334;-57
2022/10/07 07:51:58;;;;;;;7.00;2.40;;;;;;;13.93;65.38;100930.92;106781;1302;22153;-58
2022/10/07 07:54:28;;;;;;;6.20;2.50;;;;;;;13.94;65.33;100928.42;106659;1302;137588;-58
2022/10/07 07:56:55;;;;;;;8.70;2.90;;;;;;;13.95;65.06;100927.02;106732;1302;22645;-57
2022/10/07 07:59:24;;;;;;;8.50;2.50;;;;;;;13.94;65.35;100927.28;106862;1303;22602;-57
2022/10/07 08:01:50;;;;;;;8.70;2.40;;;;;;;13.95;64.76;100927.73;106662;1300;138293;-58
2022/10/07 08:04:17;;;;;;;8.10;2.50;;;;;;;13.94;65.35;100927.66;106743;1302;22424;-58
2022/10/07 08:06:44;;;;;;;10.20;2.50;;;;;;;13.97;65.56;100926.19;106643;1302;139025;-57
2022/10/07 08:09:11;;;;;;;7.40;2.70;;;;;;;14.03;65.48;100925.46;106735;1302;22163;-57
2022/10/07 08:11:41;;;;;;;10.50;3.00;;;;;;;14.08;64.94;100925.77;106668;1303;137599;-57
2022/10/07 08:14:08;;;;;;;6.90;2.20;;;;;;;14.10;64.89;100925.29;106784;1301;22135;-57
2022/10/07 08:16:35;;;;;;;12.70;2.90;;;;;;;14.15;64.51;100925.90;106739;1302;22186;-57
2022/10/07 08:19:03;;;;;;;8.40;2.20;;;;;;;14.18;64.61;100926.33;106652;1302;138989;-57
2022/10/07 08:21:33;;;;;;;10.70;2.30;;;;;;;14.23;64.76;100925.49;106733;1302;22274;-57
2022/10/07 08:24:01;;;;;;;6.60;2.40;;;;;;;14.27;64.37;100929.30;106632;1302;141934;-57
2022/10/07 08:26:31;;;;;;;6.90;3.00;;;;;;;14.28;64.71;100928.48;106766;1294;22419;-57
2022/10/07 08:29:00;;;;;;;7.40;2.30;;;;;;;14.31;64.46;100929.46;106728;1295;22227;-57
2022/10/07 08:31:27;;;;;;;10.10;3.00;;;;;;;14.34;64.13;100928.98;106683;1302;137742;-57
2022/10/07 08:33:55;;;;;;;11.10;3.00;;;;;;;14.39;64.00;100927.10;106805;1303;22909;-57
2022/10/07 08:36:23;;;;;;;12.00;2.90;;;;;;;14.43;63.30;100921.69;106719;1303;137921;-57
2022/10/07 08:38:49;;;;;;;4.80;2.40;;;;;;;14.46;63.12;100922.34;106770;1302;23021;-57
2022/10/07 08:41:36;;;;;;;11.60;2.70;;;;;;;14.49;63.83;100923.89;106807;1302;23061;-57
2022/10/07 08:44:18;;;;;;;11.30;2.60;;;;;;;14.54;64.26;100921.61;106648;1302;138567;-57
2022/10/07 08:47:07;;;;;;;5.80;2.50;;;;;;;14.59;63.45;100924.02;106819;1303;22220;-57
2022/10/07 08:49:52;;;;;;;12.20;4.20;;;;;;;14.63;62.29;100926.58;106661;1302;137704;-59
2022/10/07 08:52:31;;;;;;;111.30;12.60;;;;;;;14.66;62.44;100928.92;106857;1303;22151;-57
2022/10/07 08:55:00;;;;;;;21.20;4.40;;;;;;;14.70;62.00;100927.46;106676;1302;139087;-58
2022/10/07 08:58:07;;;;;;;8.10;3.00;;;;;;;14.76;62.12;100928.48;106755;1290;22160;-59
2022/10/07 09:00:52;;;;;;;5.30;2.10;;;;;;;14.83;60.66;100925.58;106299;1309;139004;-59
2022/10/07 09:03:34;;;;;;;13.10;3.10;;;;;;;14.87;60.30;100922.31;106287;1297;22957;-60
2022/10/07 09:06:03;;;;;;;16.80;2.20;;;;;;;14.93;59.84;100921.65;106297;1308;138682;-57
2022/10/07 09:08:32;;;;;;;7.90;2.10;;;;;;;14.97;58.66;100912.91;105690;1307;913194;-60
2022/10/07 09:11:50;;;;;;;13.90;3.10;;;;;;;15.02;57.97;100909.10;99623;1329;545431;-59
2022/10/07 09:14:28;;;;;;;6.40;2.20;;;;;;;15.02;58.19;100908.70;101338;1299;22501;-60
2022/10/07 09:16:57;;;;;;;5.30;1.90;;;;;;;15.04;56.72;100907.75;101402;1315;22488;-60
2022/10/07 09:19:56;;;;;;;8.40;2.40;;;;;;;15.04;57.04;100905.55;100958;1314;137873;-59
2022/10/07 09:22:31;;;;;;;4.00;2.00;;;;;;;15.00;56.42;100907.09;101307;1310;22538;-60
2022/10/07 09:25:14;;;;;;;13.80;2.60;;;;;;;15.01;57.25;100910.94;100793;1300;925925;-62
2022/10/07 09:27:41;;;;;;;5.90;2.50;;;;;;;15.03;57.90;100905.80;101600;1310;24976;-59
2022/10/07 09:30:11;;;;;;;47.70;20.10;;;;;;;15.04;57.79;100904.24;101700;1317;138148;-60
2022/10/07 09:32:39;;;;;;;4.90;2.60;;;;;;;15.08;57.14;100908.46;106193;1296;22282;-63
2022/10/07 09:35:28;;;;;;;6.40;1.60;;;;;;;15.11;55.52;100912.96;106152;1308;22470;-60
2022/10/07 09:37:55;;;;;;;4.10;1.50;;;;;;;15.16;55.67;100911.69;105928;1303;139286;-60
2022/10/07 09:41:14;;;;;;;7.50;1.90;;;;;;;15.21;54.79;100913.64;106313;1308;22313;-60
2022/10/07 09:43:31;;;;;;;6.40;2.90;;;;;;;15.24;54.21;100912.86;106093;1311;137672;-60
2022/10/07 09:45:58;;;;;;;6.30;2.60;;;;;;;15.25;53.79;100914.23;105932;1308;22172;-61
2022/10/07 09:48:27;;;;;;;4.80;2.40;;;;;;;15.24;54.24;100907.53;106011;1295;138292;-60
2022/10/07 09:51:14;;;;;;;8.70;2.30;;;;;;;15.26;54.98;100906.84;106148;1308;23224;-60
2022/10/07 09:53:58;;;;;;;6.00;2.30;;;;;;;15.32;56.51;100902.29;106166;1308;137873;-60
2022/10/07 09:56:33;;;;;;;6.40;2.30;;;;;;;15.40;55.71;100902.02;106122;1310;22177;-60
2022/10/07 09:59:22;;;;;;;6.20;2.40;;;;;;;15.43;54.96;100896.84;106337;1305;22140;-60
2022/10/07 10:01:59;;;;;;;9.00;4.90;;;;;;;15.44;55.67;100897.16;106520;1305;137719;-59
2022/10/07 10:04:31;;;;;;;;;;;;;;;15.45;56.41;100886.36;106498;1304;23495;-59
2022/10/07 10:07:04;;;;;;;10.50;2.90;;;;;;;15.47;57.04;100882.75;106471;1305;123755;-59
2022/10/07 10:09:31;;;;;;;12.40;3.00;;;;;;;15.51;57.23;100877.42;106457;1305;22433;-60
2022/10/07 10:12:13;;;;;;;9.20;2.40;;;;;;;15.56;57.41;100875.98;106445;1297;139513;-59
2022/10/07 10:14:46;;;;;;;8.70;3.10;;;;;;;15.64;57.05;100872.81;106452;1305;22248;-59
2022/10/07 10:17:28;;;;;;;12.30;2.90;;;;;;;15.65;56.17;100869.31;106548;1305;22847;-59
2022/10/07 10:20:15;;;;;;;6.40;2.30;;;;;;;15.62;56.59;100871.46;106439;1305;137602;-59
2022/10/07 10:22:42;;;;;;;5.70;2.40;;;;;;;15.60;56.02;100860.23;106043;1305;22895;-59
2022/10/07 10:28:20;;;;;;;5.80;2.40;;;;;;;15.65;55.22;100856.99;102156;1293;25459;-59
2022/10/07 10:30:56;;;;;;;7.20;2.00;;;;;;;15.72;54.51;100861.70;101921;1297;138212;-60
2022/10/07 10:33:31;;;;;;;7.60;3.20;;;;;;;15.77;54.31;100854.80;104794;1307;24368;-59
2022/10/07 10:36:05;;;;;;;5.80;2.10;;;;;;;15.79;54.35;100852.52;101995;1312;137357;-60
2022/10/07 10:38:36;;;;;;;6.50;2.60;;;;;;;15.83;54.01;100852.41;106477;1305;22181;-60
2022/10/07 10:41:18;;;;;;;6.00;1.60;;;;;;;15.88;54.00;100849.20;106451;1306;22198;-60
2022/10/07 10:44:04;;;;;;;6.40;1.90;;;;;;;15.92;54.29;100848.24;106376;1300;138124;-60
2022/10/07 10:46:56;;;;;;;9.90;2.80;;;;;;;15.98;54.00;100844.41;106583;1305;22293;-60
2022/10/07 10:49:29;;;;;;;12.60;2.30;;;;;;;16.03;54.37;100843.83;106413;1305;138643;-60
2022/10/07 10:52:05;;;;;;;9.80;3.40;;;;;;;16.06;54.65;100845.67;106545;1305;22241;-60
2022/10/07 10:55:00;;;;;;;5.90;2.30;;;;;;;16.10;53.33;100838.74;106449;1297;137446;-60
2022/10/07 10:57:45;;;;;;;4.80;2.30;;;;;;;16.13;52.48;100835.86;106533;1297;22179;-60
2022/10/07 11:00:13;;;;;;;6.60;1.90;;;;;;;16.17;53.09;100835.27;106510;1305;137799;-60
2022/10/07 11:02:59;;;;;;;6.60;2.50;;;;;;;16.22;52.97;100835.41;106497;1305;22238;-59
2022/10/07 11:05:35;;;;;;;23.10;3.80;;;;;;;16.27;52.83;100831.67;106574;1305;22114;-60
2022/10/07 11:08:06;;;;;;;5.10;2.60;;;;;;;16.29;52.82;100829.38;106424;1305;138484;-60
2022/10/07 11:10:53;;;;;;;7.20;2.20;;;;;;;16.34;52.91;100826.09;106486;1308;22142;-60
2022/10/07 11:13:56;;;;;;;6.90;2.10;;;;;;;16.36;51.91;100826.23;106420;1296;137237;-60
2022/10/07 11:16:41;;;;;;;6.10;2.30;;;;;;;16.37;52.06;100826.67;106100;1309;22283;-60
2022/10/07 13:38:21;;;;;;;8.60;2.80;;;;;;;19.15;56.89;100732.09;99611;1345;561142;-54
2022/10/07 13:41:17;;;;;;;8.50;3.10;;;;;;;18.62;55.50;100735.30;101670;1299;25391;-52
2022/10/07 13:43:45;;;;;;;5.00;2.10;;;;;;;18.12;55.18;100728.98;101818;1320;136896;-52
2022/10/07 13:46:13;;;;;;;7.10;2.70;;;;;;;17.79;55.07;100729.34;101946;1311;26627;-53
2022/10/07 13:48:42;;;;;;;9.90;4.40;;;;;;;17.50;54.68;100730.74;105564;1314;22856;-53
2022/10/07 13:51:25;;;;;;;5.50;2.60;;;;;;;17.25;55.23;100733.45;105247;1312;869233;-53
2022/10/07 13:53:53;;;;;;;8.20;3.10;;;;;;;17.04;55.74;100734.52;106288;1304;22344;-55
2022/10/07 13:56:36;;;;;;;6.50;2.90;;;;;;;16.88;56.32;100732.92;105879;1312;137169;-53
2022/10/07 13:59:03;;;;;;;6.00;2.20;;;;;;;16.74;57.13;100733.19;105846;1313;22199;-53
2022/10/07 14:01:31;;;;;;;14.40;3.00;;;;;;;16.63;57.03;100736.27;105822;1313;138227;-53
2022/10/07 14:04:14;;;;;;;9.20;2.30;;;;;;;16.52;57.24;100733.73;105738;1313;22724;-52
2022/10/07 14:07:08;;;;;;;5.40;2.60;;;;;;;16.42;58.10;100729.45;106004;1312;22095;-53
2022/10/07 14:09:35;;;;;;;6.10;3.60;;;;;;;16.35;58.82;100730.21;106216;1312;22578;-53
2022/10/07 14:12:10;;;;;;;;;;;;;;;16.28;59.03;100723.81;106254;1312;22383;-53